Terminal Aerodrome Forecast
Issued by NWS Cleveland, OH

Home | Current Version | Previous Version | Graphics & Text | Print | Product List | Glossary On
Versions: 1 2 3 4 5 6 7 8 9 10 11 12 13 14 15 16 17 18 19 20
000
FTUS41 KCLE 162300
TAFERI
TAF
KERI 162338Z 1700/1724 25015G25KT 6SM -RA BR BKN008 OVC018
      TEMPO 1700/1703 SCT008 OVC018
     FM170300 25015G25KT P6SM OVC008
     FM171300 25015G25KT 6SM -SHSN OVC012
     FM172100 25015G25KT 2SM -SHSN OVC015=

USA.gov is the U.S. government's official web portal to all federal, state and local government web resources and services.